Time;durP1;ratioP1;P1;durP2;ratioP2;P2;SDS_P1;SDS_P2;PMS_P1;PMS_P2;Temp;Humidity;BMP_temperature;BMP_pressure;BME280_temperature;BME280_humidity;BME280_pressure;Samples;Min_cycle;Max_cycle;Signal;HPM_P1;HPM_P2
2022/07/01 00:01:43;;;;;;;4.65;3.25;;;23.00;99.90;;;;;;4150474;28;20221;-77
2022/07/01 00:03:49;;;;;;;3.80;2.67;;;23.00;99.90;;;;;;4159198;28;20734;-77
2022/07/01 00:05:51;;;;;;;3.78;2.85;;;23.00;99.90;;;;;;4160411;28;20247;-76
2022/07/01 00:07:54;;;;;;;3.40;2.63;;;23.00;99.90;;;;;;4164844;28;20228;-77
2022/07/01 00:09:56;;;;;;;4.53;2.78;;;23.00;99.90;;;;;;4163936;28;20298;-77
2022/07/01 00:11:58;;;;;;;3.35;2.67;;;23.00;99.90;;;;;;4164776;28;20668;-77
2022/07/01 00:14:01;;;;;;;5.03;3.20;;;23.10;99.90;;;;;;4161325;28;20228;-77
2022/07/01 00:16:03;;;;;;;4.55;2.45;;;23.10;99.90;;;;;;4164680;28;20212;-76
2022/07/01 00:18:07;;;;;;;3.63;3.00;;;23.00;99.90;;;;;;4164391;28;20327;-77
2022/07/01 00:20:11;;;;;;;5.32;2.88;;;23.10;99.90;;;;;;4164698;28;20581;-77
2022/07/01 00:22:13;;;;;;;4.05;2.95;;;23.00;99.90;;;;;;4164356;28;20550;-77
2022/07/01 00:24:15;;;;;;;3.00;2.60;;;23.00;99.90;;;;;;4164460;28;20216;-77
2022/07/01 00:26:18;;;;;;;5.70;2.80;;;23.00;99.90;;;;;;4164630;28;20216;-77
2022/07/01 00:28:20;;;;;;;4.25;2.92;;;23.00;99.90;;;;;;4164309;28;20627;-77
2022/07/01 00:30:23;;;;;;;3.85;3.10;;;23.00;99.90;;;;;;4164606;28;20270;-76
2022/07/01 00:32:25;;;;;;;4.05;2.75;;;22.90;99.90;;;;;;4155588;28;20755;-77
2022/07/01 00:34:29;;;;;;;3.85;2.72;;;23.00;99.90;;;;;;4163866;28;20286;-76
2022/07/01 00:36:31;;;;;;;3.72;2.63;;;23.00;99.90;;;;;;4163753;28;20229;-77
2022/07/01 00:38:34;;;;;;;4.65;2.95;;;23.00;99.90;;;;;;4164324;28;20220;-77
2022/07/01 00:40:36;;;;;;;3.00;2.50;;;23.00;99.90;;;;;;4156291;28;20268;-77
2022/07/01 00:42:41;;;;;;;4.28;2.90;;;23.00;99.90;;;;;;4164150;28;20278;-77
2022/07/01 00:44:44;;;;;;;4.07;2.90;;;23.00;99.90;;;;;;4151142;28;20566;-77
2022/07/01 00:46:47;;;;;;;3.80;2.92;;;22.90;99.90;;;;;;4161117;28;20290;-77
2022/07/01 00:48:49;;;;;;;4.00;2.90;;;23.00;99.90;;;;;;4162767;28;20208;-77
2022/07/01 00:50:53;;;;;;;3.50;2.70;;;22.90;99.90;;;;;;4160550;28;20270;-77
2022/07/01 00:52:55;;;;;;;3.72;2.88;;;23.00;99.90;;;;;;4163771;28;20236;-77
2022/07/01 00:55:01;;;;;;;3.97;2.80;;;22.90;99.90;;;;;;4163937;28;20266;-76
2022/07/01 00:57:08;;;;;;;3.28;2.60;;;23.00;99.90;;;;;;4164098;28;20220;-77
2022/07/01 00:59:10;;;;;;;3.55;2.53;;;23.00;99.90;;;;;;4162103;28;20216;-77
2022/07/01 01:01:12;;;;;;;4.47;2.80;;;23.00;99.90;;;;;;4154358;28;20217;-77
2022/07/01 01:03:15;;;;;;;3.53;2.90;;;23.00;99.90;;;;;;4163649;28;20640;-77
2022/07/01 01:05:20;;;;;;;4.50;2.80;;;22.90;99.90;;;;;;4163350;28;20283;-76
2022/07/01 01:07:24;;;;;;;4.35;2.85;;;22.90;99.90;;;;;;4163704;28;20217;-76
2022/07/01 01:09:26;;;;;;;4.60;3.03;;;22.90;99.90;;;;;;4163785;28;20244;-77
2022/07/01 01:11:29;;;;;;;3.97;2.83;;;22.90;99.90;;;;;;4163891;28;20216;-76
2022/07/01 01:13:31;;;;;;;4.00;3.05;;;22.90;99.90;;;;;;4163895;28;20244;-77
2022/07/01 01:15:33;;;;;;;2.63;2.25;;;22.90;99.90;;;;;;4163538;28;20251;-76
2022/07/01 01:17:37;;;;;;;3.85;3.05;;;22.90;99.90;;;;;;4163840;28;20266;-77
2022/07/01 01:19:39;;;;;;;3.53;2.58;;;22.90;99.90;;;;;;4163926;28;20224;-77
2022/07/01 01:21:43;;;;;;;4.38;2.60;;;22.90;99.90;;;;;;4163786;28;20240;-76
2022/07/01 01:23:45;;;;;;;3.13;2.53;;;22.90;99.90;;;;;;4154676;28;20217;-77
2022/07/01 01:25:48;;;;;;;3.85;2.90;;;22.90;99.90;;;;;;4158716;28;20369;-77
2022/07/01 01:27:50;;;;;;;3.63;2.50;;;22.90;99.90;;;;;;4163122;28;20638;-77
2022/07/01 01:29:53;;;;;;;3.40;2.50;;;22.90;99.90;;;;;;4163307;28;20251;-77
2022/07/01 01:31:56;;;;;;;3.67;2.75;;;22.90;99.90;;;;;;4159659;28;20351;-76
2022/07/01 01:33:58;;;;;;;3.92;3.00;;;22.90;99.90;;;;;;4159819;28;20676;-77
2022/07/01 01:36:01;;;;;;;4.20;2.65;;;22.90;99.90;;;;;;4163244;28;20224;-77
2022/07/01 01:38:04;;;;;;;4.05;2.70;;;22.90;99.90;;;;;;4163137;28;20221;-77
2022/07/01 01:40:08;;;;;;;3.03;2.35;;;22.90;99.90;;;;;;4163055;28;20669;-77
2022/07/01 01:42:10;;;;;;;3.90;2.60;;;22.90;99.90;;;;;;4156250;28;20268;-77
2022/07/01 01:44:13;;;;;;;2.95;2.55;;;22.90;99.90;;;;;;4163104;28;20282;-77
2022/07/01 01:46:15;;;;;;;3.75;2.55;;;22.90;99.90;;;;;;4162974;28;20221;-76
2022/07/01 01:48:18;;;;;;;4.20;2.67;;;22.90;99.90;;;;;;4163297;28;20221;-77
2022/07/01 01:50:20;;;;;;;4.25;2.50;;;22.90;99.90;;;;;;4150594;28;20561;-77
2022/07/01 01:52:23;;;;;;;2.92;2.40;;;22.90;99.90;;;;;;4163413;28;20286;-77
2022/07/01 01:54:26;;;;;;;4.30;3.08;;;22.90;99.90;;;;;;4162905;28;20236;-77
2022/07/01 01:56:29;;;;;;;4.10;2.53;;;22.90;99.90;;;;;;4163187;28;20216;-77
2022/07/01 01:58:31;;;;;;;4.30;2.85;;;22.90;99.90;;;;;;4163074;28;20323;-77
2022/07/01 02:00:34;;;;;;;4.05;2.65;;;22.90;99.90;;;;;;4156716;28;20225;-77
2022/07/01 02:02:36;;;;;;;3.58;2.55;;;22.90;99.90;;;;;;4148806;28;20228;-76
2022/07/01 02:04:39;;;;;;;4.20;2.97;;;22.90;99.90;;;;;;4153499;28;20564;-77
2022/07/01 02:06:41;;;;;;;3.72;2.58;;;22.90;99.90;;;;;;4161894;28;20221;-77
2022/07/01 02:08:44;;;;;;;4.07;2.47;;;22.90;99.90;;;;;;4161995;28;20282;-77
2022/07/01 02:10:48;;;;;;;3.53;2.80;;;22.90;99.90;;;;;;4162163;28;20276;-77
2022/07/01 02:12:50;;;;;;;3.83;2.72;;;22.90;99.90;;;;;;4162723;28;20204;-76
2022/07/01 02:14:52;;;;;;;2.97;2.50;;;22.80;99.90;;;;;;4162574;28;20656;-77
2022/07/01 02:16:55;;;;;;;4.35;2.42;;;22.80;99.90;;;;;;4155426;28;20248;-77
2022/07/01 02:18:57;;;;;;;4.25;2.63;;;22.80;99.90;;;;;;4162758;28;20220;-77
2022/07/01 02:20:59;;;;;;;3.42;2.55;;;22.80;99.90;;;;;;4162775;28;20208;-77
2022/07/01 02:23:02;;;;;;;4.75;2.53;;;22.80;99.90;;;;;;4162894;28;20270;-76
2022/07/01 02:25:04;;;;;;;3.85;2.60;;;22.80;99.90;;;;;;4162631;28;20243;-77
2022/07/01 02:27:08;;;;;;;3.63;2.78;;;22.90;99.90;;;;;;4162417;28;20262;-77
2022/07/01 02:29:10;;;;;;;2.92;2.55;;;22.80;99.90;;;;;;4162647;28;20565;-77
2022/07/01 02:31:13;;;;;;;2.75;2.08;;;22.80;99.90;;;;;;4159351;28;20636;-77
2022/07/01 02:33:15;;;;;;;3.15;2.80;;;22.80;99.90;;;;;;4154348;28;20652;-77
2022/07/01 02:35:17;;;;;;;3.97;2.78;;;22.80;99.90;;;;;;4162376;28;20212;-77
2022/07/01 02:37:19;;;;;;;3.72;2.63;;;22.80;99.90;;;;;;4161702;28;20968;-77
2022/07/01 02:39:22;;;;;;;3.40;2.53;;;22.80;99.90;;;;;;4162537;28;20212;-77
2022/07/01 02:41:25;;;;;;;4.80;2.28;;;22.80;99.90;;;;;;4162488;28;20274;-77
2022/07/01 02:43:29;;;;;;;4.32;2.42;;;22.80;99.90;;;;;;4162157;28;20217;-77
2022/07/01 02:45:31;;;;;;;4.18;2.55;;;22.80;99.90;;;;;;4162287;28;20235;-73
2022/07/01 02:47:34;;;;;;;3.67;2.80;;;22.80;99.90;;;;;;4158692;28;20653;-73
2022/07/01 02:49:36;;;;;;;4.57;2.45;;;22.80;99.90;;;;;;4156458;28;20220;-73
2022/07/01 02:51:39;;;;;;;3.08;2.70;;;22.80;99.90;;;;;;4161806;28;20216;-73
2022/07/01 02:53:41;;;;;;;4.10;2.67;;;22.80;99.90;;;;;;4161637;28;20232;-73
2022/07/01 02:55:43;;;;;;;3.83;2.90;;;22.80;99.90;;;;;;4161914;28;20217;-73
2022/07/01 02:57:46;;;;;;;4.40;2.70;;;22.80;99.90;;;;;;4161740;28;20220;-73
2022/07/01 02:59:50;;;;;;;3.40;2.42;;;22.80;99.90;;;;;;4154736;28;20213;-73
2022/07/01 03:01:52;;;;;;;3.25;2.30;;;22.70;99.90;;;;;;4157304;28;20216;-73
2022/07/01 03:03:55;;;;;;;3.85;2.50;;;22.80;99.90;;;;;;4160548;28;20266;-73
2022/07/01 03:05:58;;;;;;;3.65;2.40;;;22.80;99.90;;;;;;4161504;28;20266;-73
2022/07/01 03:08:00;;;;;;;3.88;2.35;;;22.80;99.90;;;;;;4161374;28;20656;-73
2022/07/01 03:10:03;;;;;;;3.95;2.55;;;22.70;99.90;;;;;;4161598;28;20588;-73
2022/07/01 03:12:24;;;;;;;4.65;2.60;;;22.70;99.90;;;;;;4159916;28;20312;-73
2022/07/01 03:14:26;;;;;;;3.25;2.63;;;22.80;99.90;;;;;;4161739;28;20244;-73
2022/07/01 03:16:30;;;;;;;3.67;2.40;;;22.70;99.90;;;;;;4162098;28;20220;-73
2022/07/01 03:18:32;;;;;;;3.53;2.47;;;22.70;99.90;;;;;;4161509;28;20220;-73
2022/07/01 03:20:35;;;;;;;3.10;2.30;;;22.70;99.90;;;;;;4161343;28;20279;-73
2022/07/01 03:22:37;;;;;;;4.53;2.40;;;22.70;99.90;;;;;;4155673;28;20217;-73
2022/07/01 03:24:40;;;;;;;3.85;2.78;;;22.70;99.90;;;;;;4161695;28;20216;-73
2022/07/01 03:26:42;;;;;;;2.85;2.25;;;22.70;99.90;;;;;;4161264;28;20225;-73
2022/07/01 03:28:45;;;;;;;3.92;2.40;;;22.70;99.90;;;;;;4161460;28;20217;-73
2022/07/01 03:30:47;;;;;;;4.10;2.50;;;22.70;99.90;;;;;;4164997;28;20220;-73
2022/07/01 03:32:51;;;;;;;3.97;2.50;;;22.70;99.90;;;;;;4163409;28;20232;-73
2022/07/01 03:34:54;;;;;;;4.38;2.33;;;22.70;99.90;;;;;;4164391;28;20232;-73
2022/07/01 03:36:56;;;;;;;4.45;2.95;;;22.70;99.90;;;;;;4164343;28;20223;-73
2022/07/01 03:39:00;;;;;;;3.15;2.35;;;22.70;99.90;;;;;;4164756;28;20213;-73
2022/07/01 03:41:03;;;;;;;3.30;2.40;;;22.70;99.90;;;;;;4164717;28;20274;-73
2022/07/01 03:43:05;;;;;;;2.45;2.20;;;22.70;99.90;;;;;;4164623;28;20783;-73
2022/07/01 03:45:09;;;;;;;2.85;2.55;;;22.70;99.90;;;;;;4164316;28;20212;-73
2022/07/01 03:47:12;;;;;;;3.78;2.40;;;22.70;99.90;;;;;;4163942;28;20282;-73
2022/07/01 03:49:16;;;;;;;4.93;2.80;;;22.70;99.90;;;;;;4159708;28;20236;-73
2022/07/01 03:51:18;;;;;;;4.15;3.13;;;22.70;99.90;;;;;;4164336;28;20243;-73
2022/07/01 03:55:40;;;;;;;5.00;2.60;;;22.70;99.90;;;;;;4164606;28;20204;-73
2022/07/01 03:57:43;;;;;;;3.00;2.30;;;22.70;99.90;;;;;;4158337;28;20221;-73
2022/07/01 03:59:46;;;;;;;3.45;2.33;;;22.70;99.90;;;;;;4157921;28;20260;-73
2022/07/01 04:01:48;;;;;;;4.18;2.30;;;22.70;99.90;;;;;;4149609;28;20221;-73
2022/07/01 04:03:50;;;;;;;4.07;2.67;;;22.70;99.90;;;;;;4160338;28;20270;-73
2022/07/01 04:05:54;;;;;;;2.80;2.50;;;22.70;99.90;;;;;;4164437;28;20896;-73
2022/07/01 04:07:56;;;;;;;3.67;2.60;;;22.70;99.90;;;;;;4163910;28;20278;-73
2022/07/01 04:09:59;;;;;;;4.55;2.50;;;22.70;99.90;;;;;;4164120;28;20240;-73
2022/07/01 04:12:01;;;;;;;3.30;2.80;;;22.70;99.90;;;;;;4163883;28;20240;-73
2022/07/01 04:14:03;;;;;;;4.28;2.60;;;22.70;99.90;;;;;;4163860;28;20236;-73
2022/07/01 04:16:06;;;;;;;3.53;2.63;;;22.70;99.90;;;;;;4164050;28;20271;-73
2022/07/01 04:18:08;;;;;;;3.55;2.63;;;22.70;99.90;;;;;;4163888;28;20216;-73
2022/07/01 04:20:12;;;;;;;3.70;2.53;;;22.70;99.90;;;;;;4163809;28;20216;-73
2022/07/01 04:24:34;;;;;;;3.88;2.35;;;22.70;99.90;;;;;;4161025;28;20271;-73
2022/07/01 04:26:37;;;;;;;3.92;2.35;;;22.60;99.90;;;;;;4163747;28;20703;-73
2022/07/01 04:28:39;;;;;;;3.60;2.40;;;22.60;99.90;;;;;;4163886;28;20247;-73
2022/07/01 04:30:41;;;;;;;3.20;2.20;;;22.60;99.90;;;;;;4157958;28;20224;-73
2022/07/01 04:32:44;;;;;;;3.33;2.33;;;22.60;99.90;;;;;;4157897;28;20278;-73
2022/07/01 04:34:46;;;;;;;4.05;2.40;;;22.60;99.90;;;;;;4163781;28;20684;-73
2022/07/01 04:36:48;;;;;;;3.55;2.58;;;22.60;99.90;;;;;;4163905;28;20350;-73
2022/07/01 04:38:52;;;;;;;2.78;2.20;;;22.60;99.90;;;;;;4163243;28;20304;-73
2022/07/01 04:43:14;;;;;;;4.22;2.58;;;22.60;99.90;;;;;;4163770;28;20204;-73
2022/07/01 04:45:16;;;;;;;3.00;2.28;;;22.60;99.90;;;;;;4163473;28;20797;-73
2022/07/01 04:47:18;;;;;;;4.28;2.40;;;22.60;99.90;;;;;;4163536;28;20239;-73
2022/07/01 04:49:21;;;;;;;3.83;2.38;;;22.60;99.90;;;;;;4158229;28;20263;-73
2022/07/01 04:51:23;;;;;;;2.90;2.30;;;22.60;99.90;;;;;;4155459;28;20283;-73
2022/07/01 04:53:26;;;;;;;3.95;2.33;;;22.60;99.90;;;;;;4163508;28;20573;-73
2022/07/01 04:55:29;;;;;;;3.17;2.20;;;22.60;99.90;;;;;;4159272;28;20701;-73
2022/07/01 04:57:31;;;;;;;3.40;2.53;;;22.60;99.90;;;;;;4161294;28;20270;-73
2022/07/01 04:59:34;;;;;;;5.80;2.80;;;22.60;99.90;;;;;;4158779;28;20680;-73
2022/07/01 05:01:36;;;;;;;3.45;2.40;;;22.60;99.90;;;;;;4158523;28;20220;-73
2022/07/01 05:03:39;;;;;;;3.08;2.28;;;22.60;99.90;;;;;;4163380;28;20220;-73
2022/07/01 05:05:41;;;;;;;2.97;2.13;;;22.60;99.90;;;;;;4163237;28;20311;-73
2022/07/01 05:07:43;;;;;;;4.55;2.42;;;22.60;99.90;;;;;;4163144;28;20221;-73
2022/07/01 05:09:46;;;;;;;3.80;2.20;;;22.60;99.90;;;;;;4163060;28;20244;-73
2022/07/01 05:11:49;;;;;;;3.53;1.90;;;22.60;99.90;;;;;;4156665;28;20279;-73
2022/07/01 05:13:51;;;;;;;4.03;2.22;;;22.60;99.90;;;;;;4162154;28;20731;-73
2022/07/01 05:15:54;;;;;;;5.72;2.55;;;22.60;99.90;;;;;;4163226;28;20294;-73
2022/07/01 05:22:35;;;;;;;2.60;2.35;;;22.60;99.90;;;;;;4157064;28;20200;-73
2022/07/01 05:24:38;;;;;;;4.53;2.22;;;22.60;99.90;;;;;;4163390;28;20220;-73
2022/07/01 05:26:40;;;;;;;2.70;2.08;;;22.60;99.90;;;;;;4150464;28;20282;-73
2022/07/01 05:28:44;;;;;;;3.50;2.22;;;22.60;99.90;;;;;;4150630;28;20224;-73
2022/07/01 05:30:46;;;;;;;2.78;2.38;;;22.60;99.90;;;;;;4163165;28;20225;-73
2022/07/01 05:32:49;;;;;;;3.85;2.25;;;22.60;99.90;;;;;;4151290;28;20213;-73
2022/07/01 05:34:51;;;;;;;3.42;2.10;;;22.60;99.90;;;;;;4162372;28;20346;-73
2022/07/01 05:36:53;;;;;;;5.13;2.08;;;22.60;99.90;;;;;;4162967;28;20219;-73
2022/07/01 05:38:55;;;;;;;3.78;2.25;;;22.60;99.90;;;;;;4163203;28;20216;-73
2022/07/01 05:40:58;;;;;;;4.47;2.35;;;22.60;99.90;;;;;;4162847;28;20224;-73
2022/07/01 05:43:00;;;;;;;3.67;2.05;;;22.60;99.90;;;;;;4162103;28;20660;-73
2022/07/01 05:45:05;;;;;;;4.18;2.25;;;22.60;99.90;;;;;;4160267;28;20274;-73
2022/07/01 05:47:08;;;;;;;4.55;2.45;;;22.60;99.90;;;;;;4154963;28;20714;-73
2022/07/01 05:49:10;;;;;;;2.78;2.10;;;22.60;99.90;;;;;;4158240;28;20225;-73
2022/07/01 05:51:13;;;;;;;4.70;2.22;;;22.60;99.90;;;;;;4162032;28;20228;-73
2022/07/01 05:53:15;;;;;;;3.45;2.13;;;22.60;99.90;;;;;;4162509;28;20614;-73
2022/07/01 05:55:18;;;;;;;3.33;2.20;;;22.60;99.90;;;;;;4162471;28;20290;-73
2022/07/01 05:57:20;;;;;;;3.50;2.03;;;22.60;99.90;;;;;;4162407;28;20221;-73
2022/07/01 05:59:22;;;;;;;2.97;2.08;;;22.60;99.90;;;;;;4159411;28;20206;-73
2022/07/01 06:01:26;;;;;;;2.15;1.85;;;22.60;99.90;;;;;;4154129;28;20220;-73
2022/07/01 06:03:28;;;;;;;2.25;1.88;;;22.60;99.90;;;;;;4162363;28;20227;-73
2022/07/01 06:05:30;;;;;;;2.58;2.10;;;22.60;99.90;;;;;;4161957;28;20216;-73
2022/07/01 06:07:33;;;;;;;1.75;1.45;;;22.60;99.90;;;;;;4162358;28;20220;-73
2022/07/01 06:09:35;;;;;;;3.00;2.22;;;22.60;99.90;;;;;;4155056;28;20643;-73
2022/07/01 06:11:37;;;;;;;4.40;2.28;;;22.60;99.90;;;;;;4159097;28;20216;-73
2022/07/01 06:13:40;;;;;;;2.92;1.95;;;22.60;99.90;;;;;;4162287;28;20270;-73
2022/07/01 06:15:42;;;;;;;2.08;1.85;;;22.60;99.90;;;;;;4162241;28;20237;-73
2022/07/01 06:17:47;;;;;;;2.47;2.03;;;22.70;99.90;;;;;;4162139;28;20224;-73
2022/07/01 06:19:49;;;;;;;3.35;2.10;;;22.60;99.90;;;;;;4160851;28;20278;-73
2022/07/01 06:21:51;;;;;;;2.85;1.95;;;22.60;99.90;;;;;;4161672;28;20266;-73
2022/07/01 06:23:53;;;;;;;3.05;1.90;;;22.70;99.90;;;;;;4161989;28;20217;-73
2022/07/01 06:25:56;;;;;;;2.47;1.80;;;22.60;99.90;;;;;;4161540;28;20216;-73
2022/07/01 06:27:58;;;;;;;4.07;1.85;;;22.70;99.90;;;;;;4162267;28;20220;-73
2022/07/01 06:30:00;;;;;;;2.60;1.95;;;22.60;99.90;;;;;;4161889;28;20246;-73
2022/07/01 06:32:03;;;;;;;3.60;1.95;;;22.60;99.90;;;;;;4154940;28;20677;-73
2022/07/01 06:34:07;;;;;;;4.00;2.08;;;22.70;99.90;;;;;;4161985;28;20282;-73
2022/07/01 06:36:09;;;;;;;3.15;1.77;;;22.70;99.90;;;;;;4160377;28;20266;-73
2022/07/01 06:38:11;;;;;;;3.20;2.00;;;22.70;99.90;;;;;;4160521;28;20628;-73
2022/07/01 06:40:14;;;;;;;3.42;2.13;;;22.70;99.90;;;;;;4161993;28;20279;-73
2022/07/01 06:42:16;;;;;;;4.13;2.08;;;22.60;99.90;;;;;;4161730;28;20278;-73
2022/07/01 06:44:18;;;;;;;4.43;2.15;;;22.70;99.90;;;;;;4153522;28;20286;-73
2022/07/01 06:46:22;;;;;;;4.38;2.00;;;22.60;99.90;;;;;;4161622;28;20259;-73
2022/07/01 06:48:27;;;;;;;2.03;1.70;;;22.70;99.90;;;;;;4160286;28;20286;-73
2022/07/01 06:50:31;;;;;;;3.63;1.95;;;22.60;99.90;;;;;;4156195;28;20627;-73
2022/07/01 06:52:33;;;;;;;2.88;1.75;;;22.70;99.90;;;;;;4149382;28;20220;-76
2022/07/01 06:54:37;;;;;;;2.88;2.05;;;22.70;99.90;;;;;;4157853;28;20267;-73
2022/07/01 06:56:40;;;;;;;2.85;1.90;;;22.50;99.90;;;;;;4151048;28;20365;-73
2022/07/01 06:58:42;;;;;;;7.85;2.42;;;22.50;99.90;;;;;;4150654;28;20260;-75
2022/07/01 07:00:45;;;;;;;5.90;2.00;;;21.90;99.90;;;;;;4156368;28;20239;-76
2022/07/01 07:02:47;;;;;;;17.05;2.40;;;21.50;99.90;;;;;;4149553;28;20695;-75
2022/07/01 07:04:49;;;;;;;8.15;2.65;;;21.30;99.90;;;;;;4150227;28;20274;-74
2022/07/01 07:06:53;;;;;;;12.57;2.60;;;21.20;99.90;;;;;;4148372;28;20280;-74
2022/07/01 07:08:55;;;;;;;6.10;1.90;;;21.20;99.90;;;;;;4152574;28;20237;-74
2022/07/01 07:10:58;;;;;;;7.80;2.17;;;21.10;99.90;;;;;;4155466;28;20354;-74
2022/07/01 07:13:01;;;;;;;6.32;1.80;;;21.00;99.90;;;;;;4155454;28;20216;-75
2022/07/01 07:15:03;;;;;;;17.98;2.55;;;21.00;99.90;;;;;;4153645;28;20224;-74
2022/07/01 07:17:05;;;;;;;8.07;1.70;;;20.80;99.90;;;;;;4154118;28;20615;-74
2022/07/01 07:19:09;;;;;;;7.43;1.80;;;20.90;99.90;;;;;;4151452;28;20224;-73
2022/07/01 07:21:12;;;;;;;8.02;1.60;;;21.00;99.90;;;;;;4152137;28;20278;-74
2022/07/01 07:23:16;;;;;;;10.02;1.90;;;21.10;99.90;;;;;;4152130;28;20266;-74
2022/07/01 07:25:18;;;;;;;8.80;2.22;;;21.00;99.90;;;;;;4155152;28;20228;-73
2022/07/01 07:27:20;;;;;;;8.02;2.63;;;21.10;99.90;;;;;;4151076;28;20258;-73
2022/07/01 07:29:23;;;;;;;6.30;1.70;;;21.10;99.90;;;;;;4152302;28;20293;-74
2022/07/01 07:31:25;;;;;;;9.68;1.92;;;21.10;99.90;;;;;;4146024;28;20323;-74
2022/07/01 07:33:27;;;;;;;4.80;1.60;;;21.00;99.90;;;;;;4155591;28;20236;-73
2022/07/01 07:35:30;;;;;;;9.10;1.80;;;21.10;99.90;;;;;;4156895;28;20742;-73
2022/07/01 07:37:33;;;;;;;9.82;1.52;;;21.20;99.90;;;;;;4155684;28;20754;-75
2022/07/01 07:39:37;;;;;;;7.85;1.75;;;21.20;99.90;;;;;;4150303;28;20217;-74
2022/07/01 07:41:39;;;;;;;7.63;1.42;;;21.20;99.90;;;;;;4154109;28;21419;-74
2022/07/01 07:43:41;;;;;;;7.65;1.70;;;21.20;99.90;;;;;;4151714;28;21728;-74
2022/07/01 07:45:43;;;;;;;5.60;1.63;;;21.10;99.90;;;;;;4153505;28;20267;-74
2022/07/01 07:47:48;;;;;;;6.68;1.55;;;21.10;99.90;;;;;;4148260;28;20275;-74
2022/07/01 07:49:50;;;;;;;5.78;1.33;;;21.10;99.90;;;;;;4151790;28;20231;-73
2022/07/01 07:51:53;;;;;;;7.78;1.15;;;21.20;99.90;;;;;;4152631;28;20307;-74
2022/07/01 07:53:57;;;;;;;7.97;1.65;;;21.20;99.90;;;;;;4146658;28;20678;-75
2022/07/01 07:56:01;;;;;;;9.75;2.08;;;21.30;99.90;;;;;;4145643;28;20306;-76
2022/07/01 07:58:05;;;;;;;7.82;1.40;;;21.50;99.90;;;;;;4149929;28;20212;-74
2022/07/01 08:00:09;;;;;;;7.40;1.45;;;21.40;99.90;;;;;;4151918;28;20300;-73
2022/07/01 08:02:12;;;;;;;6.18;1.63;;;21.40;99.90;;;;;;4155169;28;20275;-74
2022/07/01 08:04:15;;;;;;;7.45;1.67;;;21.50;99.90;;;;;;4148677;28;20213;-74
2022/07/01 08:06:17;;;;;;;11.02;1.63;;;21.40;99.90;;;;;;4151004;28;20293;-73
2022/07/01 08:08:19;;;;;;;3.05;1.25;;;21.30;99.90;;;;;;4150021;28;20617;-75
2022/07/01 08:10:21;;;;;;;6.10;1.75;;;21.30;99.90;;;;;;4150495;28;20270;-74
2022/07/01 08:12:26;;;;;;;5.20;1.52;;;21.30;99.90;;;;;;4147527;28;20225;-75
2022/07/01 08:14:28;;;;;;;13.45;2.35;;;21.40;99.90;;;;;;4148662;28;20212;-74
2022/07/01 08:16:31;;;;;;;7.72;1.50;;;21.30;99.90;;;;;;4154078;28;20712;-79
2022/07/01 08:18:33;;;;;;;6.32;1.58;;;21.20;99.90;;;;;;4157375;28;20220;-74
2022/07/01 08:20:35;;;;;;;7.07;1.42;;;21.40;99.90;;;;;;4154618;28;20216;-74
2022/07/01 08:22:38;;;;;;;3.45;0.95;;;21.40;99.90;;;;;;4154056;28;20278;-74
2022/07/01 08:24:40;;;;;;;7.63;1.70;;;21.30;99.90;;;;;;4152946;28;20208;-74
2022/07/01 08:26:42;;;;;;;8.65;1.88;;;21.40;99.90;;;;;;4154628;28;20208;-76
2022/07/01 08:28:46;;;;;;;13.93;2.22;;;21.30;99.90;;;;;;4155030;28;21002;-75
2022/07/01 08:30:48;;;;;;;9.95;2.10;;;21.40;99.90;;;;;;4149174;28;20224;-75
2022/07/01 08:32:51;;;;;;;5.13;1.30;;;21.40;99.90;;;;;;4149412;28;20689;-74
2022/07/01 08:34:53;;;;;;;6.10;1.33;;;21.50;99.90;;;;;;4155383;28;20282;-75
2022/07/01 08:36:55;;;;;;;8.32;1.60;;;21.50;99.90;;;;;;4154995;28;20239;-75
2022/07/01 08:38:57;;;;;;;9.27;1.60;;;21.40;99.90;;;;;;4158567;28;20220;-77
2022/07/01 08:41:01;;;;;;;6.38;1.80;;;21.30;99.90;;;;;;4153845;28;20470;-74
2022/07/01 08:43:05;;;;;;;16.98;2.30;;;21.20;99.90;;;;;;4147799;28;20221;-74
2022/07/01 08:45:12;;;;;;;15.65;2.65;;;21.40;99.90;;;;;;4149574;28;20291;-76
2022/07/01 08:47:15;;;;;;;16.30;2.25;;;21.50;99.90;;;;;;4152784;28;20271;-76
2022/07/01 08:49:18;;;;;;;8.65;1.75;;;21.50;99.90;;;;;;4148250;28;20388;-76
2022/07/01 08:51:21;;;;;;;7.93;1.88;;;21.50;99.90;;;;;;4151195;28;20247;-75
2022/07/01 08:53:23;;;;;;;11.73;1.80;;;21.70;99.90;;;;;;4154679;28;20212;-74
2022/07/01 08:55:26;;;;;;;10.32;1.85;;;21.70;99.90;;;;;;4152215;28;20267;-74
2022/07/01 08:57:29;;;;;;;5.88;1.48;;;21.80;99.90;;;;;;4150626;28;20279;-76
2022/07/01 08:59:32;;;;;;;5.57;1.42;;;21.70;99.90;;;;;;4152407;28;20274;-76
2022/07/01 09:01:35;;;;;;;8.93;1.90;;;21.80;99.90;;;;;;4149196;28;20205;-77
2022/07/01 09:03:38;;;;;;;6.22;1.50;;;21.60;99.90;;;;;;4149684;28;20220;-77
2022/07/01 09:05:50;;;;;;;6.57;1.98;;;21.60;99.90;;;;;;4149400;28;20222;-77
2022/07/01 09:07:58;;;;;;;11.55;1.85;;;21.70;99.90;;;;;;4151520;28;20224;-73
2022/07/01 09:10:13;;;;;;;6.50;1.60;;;21.80;99.90;;;;;;4155953;28;20334;-77
2022/07/01 09:12:17;;;;;;;5.18;1.58;;;21.80;99.90;;;;;;4152320;28;20232;-74
2022/07/01 09:14:20;;;;;;;4.35;1.85;;;21.80;99.90;;;;;;4155761;28;20278;-76
2022/07/01 09:16:22;;;;;;;6.72;1.80;;;21.80;99.90;;;;;;4156188;28;20224;-74
2022/07/01 09:18:26;;;;;;;9.88;1.80;;;21.90;99.90;;;;;;4151042;28;20290;-74
2022/07/01 09:20:30;;;;;;;9.95;1.50;;;21.90;99.90;;;;;;4150388;28;20218;-74
2022/07/01 09:22:35;;;;;;;4.90;1.63;;;21.90;99.90;;;;;;4152828;28;20221;-74
2022/07/01 09:24:41;;;;;;;5.70;2.03;;;21.80;99.90;;;;;;4151588;28;20209;-74
2022/07/01 09:26:52;;;;;;;5.75;1.67;;;21.70;99.90;;;;;;4152881;28;20213;-73
2022/07/01 09:28:56;;;;;;;4.78;2.03;;;21.60;99.90;;;;;;4151691;28;20246;-74
2022/07/01 09:30:59;;;;;;;7.72;2.08;;;21.80;99.90;;;;;;4152272;28;20224;-74
2022/07/01 09:33:14;;;;;;;4.28;1.75;;;21.80;99.90;;;;;;4156078;28;20287;-74
2022/07/01 09:35:23;;;;;;;4.10;1.60;;;21.90;99.90;;;;;;4152274;28;20268;-74
2022/07/01 09:37:26;;;;;;;7.43;2.05;;;22.00;99.90;;;;;;4149736;28;20220;-75
2022/07/01 09:39:29;;;;;;;9.75;2.20;;;22.10;99.90;;;;;;4153623;28;20635;-75
2022/07/01 09:41:36;;;;;;;5.80;1.95;;;22.00;99.90;;;;;;4154721;28;20267;-75
2022/07/01 09:43:39;;;;;;;6.80;1.73;;;21.90;99.90;;;;;;4153014;28;20212;-79
2022/07/01 09:45:53;;;;;;;6.97;1.92;;;21.90;99.90;;;;;;4143858;28;20243;-75
2022/07/01 09:47:55;;;;;;;10.77;2.05;;;22.00;99.90;;;;;;4152802;28;20212;-79
2022/07/01 09:49:58;;;;;;;21.75;2.63;;;22.10;99.90;;;;;;4153245;28;20321;-75
2022/07/01 09:52:02;;;;;;;12.77;2.63;;;22.20;99.90;;;;;;4155695;28;20251;-77
2022/07/01 09:54:04;;;;;;;8.90;1.90;;;22.30;99.90;;;;;;4154002;28;20228;-76
2022/07/01 09:56:06;;;;;;;11.35;2.00;;;22.30;99.90;;;;;;4153859;28;20343;-78
2022/07/01 09:58:09;;;;;;;7.32;2.00;;;22.30;99.90;;;;;;4153443;28;20335;-80
2022/07/01 10:00:12;;;;;;;24.13;2.92;;;22.20;99.90;;;;;;4151884;28;20228;-78
2022/07/01 10:02:19;;;;;;;5.70;2.08;;;22.30;99.90;;;;;;4155509;28;20212;-78
2022/07/01 10:04:22;;;;;;;8.48;1.77;;;22.30;99.90;;;;;;4152835;28;20737;-77
2022/07/01 10:07:10;;;;;;;6.30;1.73;;;22.40;99.90;;;;;;4150469;28;20274;-78
2022/07/01 10:09:30;;;;;;;41.25;4.22;;;22.40;99.90;;;;;;4099571;28;20287;-77
2022/07/01 10:12:18;;;;;;;13.52;2.55;;;22.30;99.90;;;;;;4134630;28;20221;-80
2022/07/01 10:14:23;;;;;;;10.70;2.65;;;22.40;99.90;;;;;;4069003;29;20724;-76
2022/07/01 10:16:26;;;;;;;15.75;2.53;;;22.50;99.90;;;;;;4104206;28;20217;-77
2022/07/01 10:18:29;;;;;;;11.18;2.60;;;22.50;99.90;;;;;;4132566;28;20237;-77
2022/07/01 10:20:31;;;;;;;8.90;2.08;;;22.60;99.90;;;;;;4136136;28;20239;-75
2022/07/01 10:22:36;;;;;;;10.45;2.30;;;22.50;99.90;;;;;;4133507;28;20616;-78
2022/07/01 10:24:39;;;;;;;14.25;2.30;;;22.50;99.90;;;;;;4139330;28;20213;-76
2022/07/01 10:26:42;;;;;;;10.55;2.03;;;22.50;99.90;;;;;;4140899;28;20229;-77
2022/07/01 10:28:46;;;;;;;7.05;1.98;;;22.60;99.90;;;;;;4133663;28;20697;-77
2022/07/01 10:30:52;;;;;;;6.80;1.88;;;22.50;99.90;;;;;;4135455;28;20628;-77
2022/07/01 10:32:55;;;;;;;4.78;1.65;;;22.60;99.90;;;;;;4138083;28;20247;-77
2022/07/01 10:35:07;;;;;;;13.10;2.10;;;22.60;99.90;;;;;;4140080;28;20225;-79
2022/07/01 10:37:11;;;;;;;3.53;1.20;;;22.70;99.90;;;;;;4137979;28;20288;-80
2022/07/01 10:39:22;;;;;;;6.03;1.55;;;22.60;99.90;;;;;;4134559;28;20661;-78
2022/07/01 10:41:25;;;;;;;8.50;1.50;;;22.50;99.90;;;;;;4123273;28;21013;-78
2022/07/01 10:43:35;;;;;;;9.15;1.85;;;22.50;99.90;;;;;;4133698;28;20279;-75
2022/07/01 10:45:43;;;;;;;8.40;1.95;;;22.60;99.90;;;;;;4125428;28;20612;-75
2022/07/01 10:47:46;;;;;;;8.02;1.85;;;22.50;99.90;;;;;;4125509;28;20239;-79
2022/07/01 10:49:57;;;;;;;15.68;2.88;;;22.50;99.90;;;;;;4126022;28;20221;-75
2022/07/01 10:51:59;;;;;;;17.90;2.85;;;22.50;99.90;;;;;;4130705;28;20213;-73
2022/07/01 10:54:01;;;;;;;13.02;2.35;;;22.60;99.90;;;;;;4135957;28;20312;-77